地図

経路データ

SID SEASON NUMBER BASIN SUBBASIN NAME ISO_TIME NATURE LAT LON WMO_WIND WMO_PRES WMO_AGENCY TRACK_TYPE DIST2LAND LANDFALL IFLAG USA_AGENCY USA_ATCF_ID USA_LAT USA_LON USA_RECORD USA_STATUS USA_WIND USA_PRES USA_SSHS USA_R34_NE USA_R34_SE USA_R34_SW USA_R34_NW USA_R50_NE USA_R50_SE USA_R50_SW USA_R50_NW USA_R64_NE USA_R64_SE USA_R64_SW USA_R64_NW USA_POCI USA_ROCI USA_RMW USA_EYE TOKYO_LAT TOKYO_LON TOKYO_GRADE TOKYO_WIND TOKYO_PRES TOKYO_R50_DIR TOKYO_R50_LONG TOKYO_R50_SHORT TOKYO_R30_DIR TOKYO_R30_LONG TOKYO_R30_SHORT TOKYO_LAND CMA_LAT CMA_LON CMA_CAT CMA_WIND CMA_PRES HKO_LAT HKO_LON HKO_CAT HKO_WIND HKO_PRES NEWDELHI_LAT NEWDELHI_LON NEWDELHI_GRADE NEWDELHI_WIND NEWDELHI_PRES NEWDELHI_CI NEWDELHI_DP NEWDELHI_POCI REUNION_LAT REUNION_LON REUNION_TYPE REUNION_WIND REUNION_PRES REUNION_TNUM REUNION_CI REUNION_RMW REUNION_R34_NE REUNION_R34_SE REUNION_R34_SW REUNION_R34_NW REUNION_R50_NE REUNION_R50_SE REUNION_R50_SW REUNION_R50_NW REUNION_R64_NE REUNION_R64_SE REUNION_R64_SW REUNION_R64_NW BOM_LAT BOM_LON BOM_TYPE BOM_WIND BOM_PRES BOM_TNUM BOM_CI BOM_RMW BOM_R34_NE BOM_R34_SE BOM_R34_SW BOM_R34_NW BOM_R50_NE BOM_R50_SE BOM_R50_SW BOM_R50_NW BOM_R64_NE BOM_R64_SE BOM_R64_SW BOM_R64_NW BOM_ROCI BOM_POCI BOM_EYE BOM_POS_METHOD BOM_PRES_METHOD NADI_LAT NADI_LON NADI_CAT NADI_WIND NADI_PRES WELLINGTON_LAT WELLINGTON_LON WELLINGTON_WIND WELLINGTON_PRES DS824_LAT DS824_LON DS824_STAGE DS824_WIND DS824_PRES TD9636_LAT TD9636_LON TD9636_STAGE TD9636_WIND TD9636_PRES TD9635_LAT TD9635_LON TD9635_WIND TD9635_PRES TD9635_ROCI NEUMANN_LAT NEUMANN_LON NEUMANN_CLASS NEUMANN_WIND NEUMANN_PRES MLC_LAT MLC_LON MLC_CLASS MLC_WIND MLC_PRES USA_GUST BOM_GUST BOM_GUST_PER REUNION_GUST REUNION_GUST_PER USA_SEAHGT USA_SEARAD_NE USA_SEARAD_SE USA_SEARAD_SW USA_SEARAD_NW STORM_SPEED STORM_DIR
1919062S14128 1919 4 SI WA NOT_NAMED 1919-03-02 23:30:00 NR -14.3000 128.300 bom main 46 46 ______O_______ -1 -14.3000 128.300 6 132
1919062S14128 1919 4 SI WA NOT_NAMED 1919-03-03 00:00:00 NR -14.3375 128.335 main 46 31 ______P_______ -1 -14.3375 128.335 10 268
1919062S14128 1919 4 SI WA NOT_NAMED 1919-03-03 01:00:00 NR -14.3093 128.053 main 31 15 ______P___O___ -1 -14.4123 128.404 -14.0000 127.000 7 5 252
1919062S14128 1919 4 SI WA NOT_NAMED 1919-03-03 03:00:00 NR -14.4152 128.084 main 24 11 ______P___P___ -1 -14.5595 128.545 -14.1265 127.161 7 4 155
1919062S14128 1919 4 SI WA NOT_NAMED 1919-03-03 06:00:00 NR -14.5725 128.181 main 11 10 ______P___P___ -1 -14.7675 128.763 -14.3124 127.405 7 3 163
1919062S14128 1919 4 SI WA NOT_NAMED 1919-03-03 06:30:00 NR -14.5713 128.123 bom main 10 0 ______O___P___ -1 -14.8000 128.800 -14.3427 127.446 7 4 137
1919062S14128 1919 4 SI WA NOT_NAMED 1919-03-03 09:00:00 NR -14.7197 128.323 main 10 0 ______P___P___ -1 -14.9504 128.992 -14.4889 127.654 7 6 125
1919062S14128 1919 4 SI WA NOT_NAMED 1919-03-03 12:00:00 NR -14.8760 128.570 main 0 0 ______P___P___ -1 -15.1015 129.228 -14.6505 127.912 7 6 122
1919062S14128 1919 4 SI WA NOT_NAMED 1919-03-03 13:00:00 NR -14.9220 128.653 main 0 0 ______P___O___ -1 -15.1440 129.306 -14.7000 128.000 7 5 118
1919062S14128 1919 4 SI WA NOT_NAMED 1919-03-03 15:00:00 NR -15.0036 128.819 main 0 0 ______P___P___ -1 -15.2161 129.459 -14.7912 128.180 7 5 114
1919062S14128 1919 4 SI WA NOT_NAMED 1919-03-03 18:00:00 NR -15.0962 129.063 main 0 0 ______P___P___ -1 -15.2892 129.676 -14.9033 128.450 7 5 108
1919062S14128 1919 4 SI WA NOT_NAMED 1919-03-03 21:00:00 NR -15.1466 129.287 main 0 0 ______P___P___ -1 -15.3162 129.867 -14.9771 128.706 7 4 98
1919062S14128 1919 4 SI WA NOT_NAMED 1919-03-03 23:30:00 NR -15.1514 129.449 bom main 0 0 ______O___P___ -1 -15.3000 130.000 -15.0027 128.898 7 4 91
1919062S14128 1919 4 SI WA NOT_NAMED 1919-03-04 00:00:00 NR -15.1500 129.478 main 0 0 ______P___P___ -1 -15.2967 130.022 -15.0034 128.933 7 3 84
1919062S14128 1919 4 SI WA NOT_NAMED 1919-03-04 01:00:00 NR -15.1428 129.531 main 0 0 ______P___O___ -1 -15.2856 130.063 -15.0000 129.000 7 3 75
1919062S14128 1919 4 SI WA NOT_NAMED 1919-03-04 03:00:00 NR -15.1122 129.622 main 10 0 ______P___P___ -1 -15.2460 130.131 -14.9784 129.112 7 3 58
1919062S14128 1919 4 SI WA NOT_NAMED 1919-03-04 06:00:00 NR -15.0239 129.727 main 0 0 ______P___P___ -1 -15.1458 130.206 -14.9021 129.248 7 3 39
1919062S14128 1919 4 SI WA NOT_NAMED 1919-03-04 09:00:00 NR -14.8937 129.805 main 0 0 ______P___P___ -1 -15.0004 130.250 -14.7870 129.361 7 3 25
1919062S14128 1919 4 SI WA NOT_NAMED 1919-03-04 12:00:00 NR -14.7314 129.867 main 0 0 ______P___P___ -1 -14.8141 130.269 -14.6486 129.464 7 4 19
1919062S14128 1919 4 SI WA NOT_NAMED 1919-03-04 13:00:00 NR -14.6719 129.885 main 0 0 ______P___O___ -1 -14.7438 130.271 -14.6000 129.500 7 3 15
1919062S14128 1919 4 SI WA NOT_NAMED 1919-03-04 15:00:00 NR -14.5645 129.914 main 0 0 ______P___P___ -1 -14.5914 130.268 -14.5375 129.559 7 4 14
1919062S14128 1919 4 SI WA NOT_NAMED 1919-03-04 18:00:00 NR -14.3841 129.950 main 0 0 ______P___P___ -1 -14.3365 130.252 -14.4317 129.648 7 4 12
1919062S14128 1919 4 SI WA NOT_NAMED 1919-03-04 21:00:00 NR -14.1716 129.994 main 0 0 ______P___P___ -1 -14.0538 130.226 -14.2895 129.761 7 5 13
1919062S14128 1919 4 SI WA NOT_NAMED 1919-03-04 23:30:00 NR -13.9626 130.048 bom main 0 0 ______O___P___ -1 -13.8000 130.200 -14.1251 129.895 7 5 14
1919062S14128 1919 4 SI WA NOT_NAMED 1919-03-05 00:00:00 NR -13.9169 130.061 main 0 0 ______P___P___ -1 -13.7479 130.195 -14.0858 129.928 7 6 16
1919062S14128 1919 4 SI WA NOT_NAMED 1919-03-05 01:00:00 NR -13.8202 130.092 main 0 0 ______P___O___ -1 -13.6405 130.183 -14.0000 130.000 7 7 19
1919062S14128 1919 4 SI WA NOT_NAMED 1919-03-05 03:00:00 NR -13.6008 130.167 main 0 0 ______P___P___ -1 -13.4164 130.157 -13.7853 130.177 7 7 20
1919062S14128 1919 4 SI WA NOT_NAMED 1919-03-05 06:00:00 NR -13.2367 130.309 main 0 0 ______P___P___ -1 -13.0735 130.119 -13.3999 130.499 7 8 22
1919062S14128 1919 4 SI WA NOT_NAMED 1919-03-05 08:30:00 NR -12.9223 130.453 bom main 0 0 ______O___P___ -1 -12.8000 130.100 -13.0446 130.805 7 8 24
1919062S14128 1919 4 SI WA NOT_NAMED 1919-03-05 09:00:00 NR -12.8598 130.482 main 0 0 ______P___P___ -1 -12.7477 130.096 -12.9719 130.869 7 8 28
1919062S14128 1919 4 SI WA NOT_NAMED 1919-03-05 11:30:00 NR -12.5549 130.649 bom main 0 0 ______O___P___ -1 -12.5000 130.100 -12.6098 131.199 7 8 29
1919062S14128 1919 4 SI WA NOT_NAMED 1919-03-05 12:00:00 NR -12.4950 130.688 main 0 0 ______P___P___ -1 -12.4512 130.111 -12.5389 131.266 7 9 34
1919062S14128 1919 4 SI WA NOT_NAMED 1919-03-05 13:00:00 NR -12.3777 130.773 main 0 0 ______P___O___ -1 -12.3554 130.145 -12.4000 131.400 7 9 37
1919062S14128 1919 4 SI WA NOT_NAMED 1919-03-05 15:00:00 NR -12.1267 130.970 main 22 10 ______P___P___ -1 -12.1740 130.258 -12.0794 131.682 7 10 41
1919062S14128 1919 4 SI WA NOT_NAMED 1919-03-05 18:00:00 NR -11.7747 131.314 main 11 0 ______P___P___ -1 -11.9401 130.511 -11.6093 132.118 7 9 48
1919062S14128 1919 4 SI WA NOT_NAMED 1919-03-05 21:00:00 NR -11.4998 131.680 main 21 0 ______P___P___ -1 -11.7725 130.824 -11.2270 132.536 7 8 58
1919062S14128 1919 4 SI WA NOT_NAMED 1919-03-05 23:30:00 NR -11.3683 131.972 bom main 0 0 ______O___P___ -1 -11.7000 131.100 -11.0365 132.843 7 7 67
1919062S14128 1919 4 SI WA NOT_NAMED 1919-03-06 00:00:00 NR -11.3560 132.023 main 0 0 ______P___P___ -1 -11.6950 131.149 -11.0171 132.898 7 6 82
1919062S14128 1919 4 SI WA NOT_NAMED 1919-03-06 01:00:00 NR -11.3471 132.124 main 0 0 ______P___O___ -1 -11.6943 131.248 -11.0000 133.000 7 6 100
1919062S14128 1919 4 SI WA NOT_NAMED 1919-03-06 03:00:00 NR -11.4047 132.308 main 0 0 ______P___P___ -1 -11.7252 131.453 -11.0842 133.162 7 6 122
1919062S14128 1919 4 SI WA NOT_NAMED 1919-03-06 06:00:00 NR -11.6126 132.554 main 0 0 ______P___P___ -1 -11.8316 131.766 -11.3936 133.342 7 7 138
1919062S14128 1919 4 SI WA NOT_NAMED 1919-03-06 09:00:00 NR -11.9094 132.769 main 0 0 ______P___P___ -1 -11.9766 132.069 -11.8422 133.469 7 7 147
1919062S14128 1919 4 SI WA NOT_NAMED 1919-03-06 11:30:00 NR -12.1785 132.927 bom main 0 0 ______O___P___ -1 -12.1000 132.300 -12.2569 133.553 7 7 151
1919062S14128 1919 4 SI WA NOT_NAMED 1919-03-06 12:00:00 NR -12.2311 132.956 main 0 0 ______P___P___ -1 -12.1229 132.343 -12.3393 133.569 7 7 154
1919062S14128 1919 4 SI WA NOT_NAMED 1919-03-06 13:00:00 NR -12.3332 133.012 main 0 0 ______P___O___ -1 -12.1664 132.425 -12.5000 133.600 7 6 152
1919062S14128 1919 4 SI WA NOT_NAMED 1919-03-06 15:00:00 NR -12.5130 133.106 main 0 0 ______P___P___ -1 -12.2448 132.576 -12.7812 133.636 7 7 152
1919062S14128 1919 4 SI WA NOT_NAMED 1919-03-06 18:00:00 NR -12.8359 133.291 main 0 0 ______P___P___ -1 -12.3456 132.777 -13.2037 133.677 7 8 152
1919062S14128 1919 4 SI WA NOT_NAMED 1919-03-06 21:00:00 NR -13.2069 133.487 main 0 0 ______P___P___ -1 -12.4326 132.957 -13.5940 133.752 7 10 151
1919062S14128 1919 4 SI WA NOT_NAMED 1919-03-06 23:30:00 NR -13.5943 133.724 bom main 0 0 ______O___P___ -1 -12.5000 133.100 -13.8679 133.880 7 17 150
1919062S14128 1919 4 SI WA NOT_NAMED 1919-03-07 00:00:00 NR -13.9149 133.916 main 0 0 __________P___ -1 -13.9149 133.916 7 20 147
1919062S14128 1919 4 SI WA NOT_NAMED 1919-03-07 01:00:00 NR -14.0000 134.000 main 0 0 __________O___ -1 -14.0000 134.000 7 8 125
1919062S14128 1919 4 SI WA NOT_NAMED 1919-03-07 03:00:00 NR -14.1346 134.242 main 0 0 __________P___ -1 -14.1346 134.242 7 9 111
1919062S14128 1919 4 SI WA NOT_NAMED 1919-03-07 06:00:00 NR -14.2609 134.706 main 0 0 __________P___ -1 -14.2609 134.706 7 10 100
1919062S14128 1919 4 SP EA NOT_NAMED 1919-03-07 09:00:00 NR -14.3131 135.246 main 0 0 __________P___ -1 -14.3131 135.246 7 11 93
1919062S14128 1919 4 SP EA NOT_NAMED 1919-03-07 12:00:00 NR -14.3100 135.814 main 10 10 __________P___ -1 -14.3100 135.814 7 11 89
1919062S14128 1919 4 SP EA NOT_NAMED 1919-03-07 13:00:00 NR -14.3000 136.000 main 15 11 __________O___ -1 -14.3000 136.000 7 11 86
1919062S14128 1919 4 SP EA NOT_NAMED 1919-03-07 15:00:00 NR -14.2703 136.361 main 11 0 __________P___ -1 -14.2703 136.361 7 10 84
1919062S14128 1919 4 SP EA NOT_NAMED 1919-03-07 18:00:00 NR -14.2058 136.875 main 0 0 __________P___ -1 -14.2058 136.875 7 10 81
1919062S14128 1919 4 SP EA NOT_NAMED 1919-03-07 21:00:00 NR -14.1240 137.365 main 48 48 __________P___ -1 -14.1240 137.365 7 10 79
1919062S14128 1919 4 SP EA NOT_NAMED 1919-03-08 00:00:00 NR -14.0318 137.842 main 92 102 __________P___ -1 -14.0318 137.842 7 9 79
1919062S14128 1919 4 SP EA NOT_NAMED 1919-03-08 01:00:00 NR -14.0000 138.000 main 112 __________O___ -1 -14.0000 138.000 7 9 78

IBTrACS Databaseについて

本データベースは、米国NOAAが公開する1842年以降の世界の熱帯低気圧のベストトラックデータアーカイブInternational Best Track Archive for Climate Stewardship (IBTrACS)を、ウェブで閲覧しやすい形式に変換したものです。

最終更新日:2021-10-21